Terminal Aerodrome Forecast
Issued by NWS

Home | Current Version | Previous Version | Text Only | Print | Product List | Glossary On
Versions: 1 2 3 4 5 6 7 8 9 10 11 12 13 14 15 16 17 18 19 20 21 22 23 24 25 26 27 28 29 30 31 32 33
206
FTUS46 KLOX 281455 AAC
TAFLAX
TAF AMD
KLAX 281455Z 2815/2918 25006KT P6SM SCT010
     FM281900 26012KT P6SM SCT200
     FM290400 25006KT P6SM SKC
     FM290900 VRB03KT P6SM BKN007
     FM291600 23006KT P6SM SKC=

USA.gov is the U.S. government's official web portal to all federal, state and local government web resources and services.